createdAt,value
2022-10-22T00:01:42.052Z,8.87
2022-10-22T00:04:08.727Z,8.86
2022-10-22T00:06:35.380Z,8.92
2022-10-22T00:09:02.181Z,8.86
2022-10-22T00:11:28.961Z,8.80
2022-10-22T00:13:55.930Z,8.80
2022-10-22T00:16:22.571Z,8.84
2022-10-22T00:18:49.251Z,8.84
2022-10-22T00:21:15.900Z,8.82
2022-10-22T00:23:43.517Z,8.84
2022-10-22T00:26:11.031Z,8.83
2022-10-22T00:28:38.000Z,8.85
2022-10-22T00:31:04.886Z,8.92
2022-10-22T00:33:31.568Z,8.89
2022-10-22T00:35:58.569Z,8.87
2022-10-22T00:38:25.207Z,8.89
2022-10-22T00:40:51.977Z,8.91
2022-10-22T00:43:20.150Z,8.93
2022-10-22T00:45:47.152Z,8.93
2022-10-22T00:48:19.037Z,8.98
2022-10-22T00:50:50.809Z,9.02
2022-10-22T00:53:22.004Z,9.05
2022-10-22T00:55:52.800Z,9.00
2022-10-22T00:58:23.416Z,9.12
2022-10-22T01:00:50.160Z,8.99
2022-10-22T01:03:17.098Z,8.96
2022-10-22T01:05:51.870Z,8.88
2022-10-22T01:08:35.663Z,8.84
2022-10-22T01:11:05.021Z,8.75
2022-10-22T01:13:31.624Z,8.76
2022-10-22T01:16:16.887Z,8.77
2022-10-22T01:18:58.798Z,8.81
2022-10-22T01:21:31.722Z,8.76
2022-10-22T01:24:15.008Z,8.74
2022-10-22T01:27:00.137Z,8.73
2022-10-22T01:29:33.342Z,8.67
2022-10-22T01:32:05.333Z,8.62
2022-10-22T01:34:33.755Z,8.59
2022-10-22T01:37:02.627Z,8.55
2022-10-22T01:39:31.492Z,8.58
2022-10-22T01:41:58.518Z,8.59
2022-10-22T01:47:17.204Z,8.54
2022-10-22T01:49:46.804Z,8.52
2022-10-22T01:52:27.124Z,8.54
2022-10-22T01:55:03.152Z,8.56
2022-10-22T01:57:42.024Z,8.57
2022-10-22T02:00:12.711Z,8.54
2022-10-22T02:02:51.607Z,8.40
2022-10-22T02:05:44.191Z,8.40
2022-10-22T02:08:24.222Z,8.36
2022-10-22T02:10:51.634Z,8.35
2022-10-22T02:13:26.666Z,8.38
2022-10-22T02:15:55.053Z,8.39
2022-10-22T02:18:26.052Z,8.41
2022-10-22T02:20:53.718Z,8.30
2022-10-22T02:23:21.758Z,8.27
2022-10-22T02:25:55.947Z,8.21
2022-10-22T02:28:43.832Z,8.19
2022-10-22T02:31:15.675Z,8.18
2022-10-22T02:33:47.897Z,8.17
2022-10-22T02:36:16.741Z,8.19
2022-10-22T02:38:44.461Z,8.20
2022-10-22T02:41:11.102Z,8.21
2022-10-22T02:43:43.065Z,8.13
2022-10-22T02:46:10.615Z,8.03
2022-10-22T02:48:37.703Z,8.05
2022-10-22T02:51:04.450Z,8.07
2022-10-22T02:53:31.061Z,8.08
2022-10-22T02:55:57.702Z,8.12
2022-10-22T02:58:24.434Z,8.18
2022-10-22T03:00:51.114Z,8.16
2022-10-22T03:03:17.838Z,8.12
2022-10-22T03:05:44.475Z,8.10
2022-10-22T03:08:11.162Z,8.04
2022-10-22T03:10:37.804Z,7.93
2022-10-22T03:13:04.442Z,7.93
2022-10-22T03:15:31.083Z,7.96
2022-10-22T03:17:57.675Z,7.98
2022-10-22T03:20:24.390Z,7.95
2022-10-22T03:22:51.071Z,7.96
2022-10-22T03:25:22.649Z,7.97
2022-10-22T03:27:52.135Z,7.90
2022-10-22T03:30:19.181Z,7.80
2022-10-22T03:32:45.797Z,7.70
2022-10-22T03:35:12.479Z,7.72
2022-10-22T03:37:39.934Z,7.76
2022-10-22T03:40:08.386Z,7.71
2022-10-22T03:42:35.102Z,7.63
2022-10-22T03:45:01.764Z,7.80
2022-10-22T03:47:28.481Z,7.74
2022-10-22T03:49:55.110Z,7.72
2022-10-22T03:52:21.953Z,7.68
2022-10-22T03:54:48.580Z,7.67
2022-10-22T03:57:15.246Z,7.65
2022-10-22T03:59:44.833Z,7.68
2022-10-22T04:02:13.124Z,7.65
2022-10-22T04:04:40.096Z,7.64
2022-10-22T04:07:07.205Z,7.63
2022-10-22T04:09:34.719Z,7.62
2022-10-22T04:12:01.557Z,7.64
2022-10-22T04:14:28.216Z,7.64
2022-10-22T04:16:55.009Z,7.65
2022-10-22T04:19:21.709Z,7.67
2022-10-22T04:21:48.389Z,7.68
2022-10-22T04:24:15.208Z,7.67
2022-10-22T04:26:42.018Z,7.69
2022-10-22T04:29:11.967Z,7.68
2022-10-22T04:31:41.912Z,7.53
2022-10-22T04:34:08.647Z,7.48
2022-10-22T04:36:35.395Z,7.47
2022-10-22T04:39:03.618Z,7.45
2022-10-22T04:41:35.816Z,7.46
2022-10-22T04:44:03.234Z,7.44
2022-10-22T04:46:32.086Z,7.40
2022-10-22T04:48:58.805Z,7.46
2022-10-22T04:51:27.016Z,7.48
2022-10-22T04:53:54.240Z,7.43
2022-10-22T04:56:26.903Z,7.39
2022-10-22T04:59:02.333Z,7.36
2022-10-22T05:01:37.064Z,7.20
2022-10-22T05:04:08.454Z,7.19
2022-10-22T05:06:36.755Z,7.25
2022-10-22T05:09:10.894Z,7.23
2022-10-22T05:11:41.647Z,7.22
2022-10-22T05:14:10.151Z,7.28
2022-10-22T05:16:38.203Z,7.28
2022-10-22T05:19:05.828Z,7.35
2022-10-22T05:21:32.826Z,7.41
2022-10-22T05:24:00.024Z,7.43
2022-10-22T05:26:27.756Z,7.41
2022-10-22T05:28:54.546Z,7.44
2022-10-22T05:31:28.937Z,7.42
2022-10-22T05:33:55.690Z,7.46
2022-10-22T05:36:22.877Z,7.38
2022-10-22T05:38:50.085Z,7.36
2022-10-22T05:41:19.915Z,7.38
2022-10-22T05:43:46.943Z,7.49
2022-10-22T05:46:21.221Z,7.64
2022-10-22T05:48:50.458Z,7.62
2022-10-22T05:51:17.547Z,7.62
2022-10-22T05:53:44.508Z,7.61
2022-10-22T05:56:14.284Z,7.58
2022-10-22T05:58:42.435Z,7.61
2022-10-22T06:01:16.354Z,7.64
2022-10-22T06:03:43.853Z,7.72
2022-10-22T06:06:34.291Z,7.75
2022-10-22T06:09:06.720Z,7.80
2022-10-22T06:11:35.192Z,7.93
2022-10-22T06:14:02.303Z,7.79
2022-10-22T06:16:30.119Z,7.77
2022-10-22T06:18:58.971Z,7.75
2022-10-22T06:21:25.632Z,7.71
2022-10-22T06:23:52.322Z,7.76
2022-10-22T06:26:19.022Z,7.84
2022-10-22T06:28:45.687Z,7.89
2022-10-22T06:31:12.351Z,7.96
2022-10-22T06:33:42.485Z,8.01
2022-10-22T06:36:12.179Z,8.16
2022-10-22T06:38:38.901Z,8.22
2022-10-22T06:41:12.138Z,8.25
2022-10-22T06:43:39.459Z,8.32
2022-10-22T06:46:09.896Z,8.33
2022-10-22T06:48:38.003Z,8.39
2022-10-22T06:51:07.084Z,8.39
2022-10-22T06:53:35.324Z,8.37
2022-10-22T06:56:06.820Z,8.41
2022-10-22T06:58:33.638Z,8.42
2022-10-22T07:01:05.303Z,8.49
2022-10-22T07:03:32.078Z,8.54
2022-10-22T07:06:03.539Z,8.45
2022-10-22T07:08:30.310Z,8.51
2022-10-22T07:10:58.597Z,8.56
2022-10-22T07:13:25.201Z,8.58
2022-10-22T07:15:55.205Z,8.65
2022-10-22T07:18:22.616Z,8.71
2022-10-22T07:20:49.667Z,8.79
2022-10-22T07:23:17.065Z,8.89
2022-10-22T07:25:44.092Z,8.99
2022-10-22T07:28:11.229Z,9.09
2022-10-22T07:30:39.174Z,9.10
2022-10-22T07:33:06.257Z,9.13
2022-10-22T07:35:34.573Z,9.17
2022-10-22T07:38:01.388Z,9.27
2022-10-22T07:40:28.037Z,9.29
2022-10-22T07:42:54.675Z,9.30
2022-10-22T07:45:21.347Z,9.33
2022-10-22T07:47:48.544Z,9.37
2022-10-22T07:50:16.418Z,9.43
2022-10-22T07:52:43.798Z,9.44
2022-10-22T07:55:10.636Z,9.53
2022-10-22T07:57:37.384Z,9.75
2022-10-22T08:00:06.881Z,9.76
2022-10-22T08:02:33.742Z,9.81
2022-10-22T08:05:00.426Z,9.89
2022-10-22T08:07:27.707Z,9.91
2022-10-22T08:09:54.388Z,10.14
2022-10-22T08:12:21.046Z,10.19
2022-10-22T08:14:47.748Z,10.32
2022-10-22T08:17:15.902Z,10.32
2022-10-22T08:19:42.672Z,10.39
2022-10-22T08:22:09.343Z,10.17
2022-10-22T08:24:36.092Z,10.07
2022-10-22T08:27:02.799Z,10.05
2022-10-22T08:29:29.527Z,10.03
2022-10-22T08:31:56.178Z,10.05
2022-10-22T08:34:22.815Z,10.03
2022-10-22T08:36:49.510Z,9.93
2022-10-22T08:39:16.223Z,9.87
2022-10-22T08:42:22.318Z,9.95
2022-10-22T08:45:07.391Z,10.06
2022-10-22T08:48:15.734Z,10.01
2022-10-22T08:50:47.636Z,10.01
2022-10-22T08:53:18.424Z,10.00
2022-10-22T08:55:45.696Z,10.03
2022-10-22T08:58:24.085Z,10.06
2022-10-22T09:01:03.097Z,10.09
2022-10-22T09:03:32.729Z,10.13
2022-10-22T09:06:03.887Z,10.24
2022-10-22T09:08:30.779Z,10.32
2022-10-22T09:11:09.436Z,10.49
2022-10-22T09:13:36.120Z,10.65
2022-10-22T09:16:16.176Z,10.74
2022-10-22T09:18:58.781Z,10.72
2022-10-22T09:21:45.727Z,10.70
2022-10-22T09:24:23.693Z,10.73
2022-10-22T09:26:51.289Z,10.83
2022-10-22T09:29:24.721Z,10.86
2022-10-22T09:31:51.590Z,10.90
2022-10-22T09:34:22.343Z,10.95
2022-10-22T09:36:58.482Z,11.04
2022-10-22T09:39:32.640Z,11.06
2022-10-22T09:41:59.549Z,11.07
2022-10-22T09:44:26.539Z,11.18
2022-10-22T09:46:53.143Z,11.23
2022-10-22T09:49:23.375Z,11.35
2022-10-22T09:52:00.269Z,11.38
2022-10-22T09:54:40.388Z,11.54
2022-10-22T09:57:22.134Z,11.56
2022-10-22T09:59:50.678Z,11.62
2022-10-22T10:02:37.626Z,11.67
2022-10-22T10:05:05.969Z,11.74
2022-10-22T10:07:35.065Z,11.86
2022-10-22T10:10:02.146Z,11.90
2022-10-22T10:12:44.154Z,12.01
2022-10-22T10:15:40.290Z,12.10
2022-10-22T10:18:21.583Z,12.28
2022-10-22T10:21:03.326Z,12.14
2022-10-22T10:23:48.378Z,12.19
2022-10-22T10:26:33.660Z,12.17
2022-10-22T10:29:09.019Z,12.09
2022-10-22T10:32:09.366Z,12.21
2022-10-22T10:35:06.616Z,12.20
2022-10-22T10:37:40.179Z,12.24
2022-10-22T10:40:33.439Z,12.27
2022-10-22T10:43:10.790Z,12.23
2022-10-22T10:45:55.596Z,12.18
2022-10-22T10:48:22.461Z,12.10
2022-10-22T10:51:13.904Z,12.13
2022-10-22T10:53:40.451Z,12.18
2022-10-22T10:56:38.995Z,12.25
2022-10-22T10:59:30.809Z,12.32
2022-10-22T11:02:16.101Z,12.32
2022-10-22T11:05:01.017Z,12.34
2022-10-22T11:07:35.215Z,12.39
2022-10-22T11:10:19.149Z,12.64
2022-10-22T11:12:51.546Z,12.73
2022-10-22T11:15:31.072Z,12.72
2022-10-22T11:18:07.503Z,12.77
2022-10-22T11:21:03.054Z,12.69
2022-10-22T11:23:35.624Z,12.78
2022-10-22T11:26:05.600Z,12.75
2022-10-22T11:28:36.323Z,12.78
2022-10-22T11:31:09.207Z,12.77
2022-10-22T11:33:45.920Z,12.80
2022-10-22T11:36:13.480Z,12.76
2022-10-22T11:38:40.099Z,12.77
2022-10-22T11:41:33.620Z,12.86
2022-10-22T11:44:22.766Z,12.88
2022-10-22T11:47:08.689Z,12.80
2022-10-22T11:49:43.907Z,12.82
2022-10-22T11:52:37.417Z,12.82
2022-10-22T11:55:48.675Z,12.90
2022-10-22T11:58:32.545Z,12.84
2022-10-22T12:01:01.947Z,12.84
2022-10-22T12:03:28.519Z,12.80
2022-10-22T12:06:13.432Z,12.82
2022-10-22T12:08:49.083Z,12.91
2022-10-22T12:11:37.604Z,12.93
2022-10-22T12:14:26.586Z,12.98
2022-10-22T12:16:57.938Z,12.98
2022-10-22T12:19:32.842Z,12.94
2022-10-22T12:22:16.168Z,12.89
2022-10-22T12:24:57.804Z,12.93
2022-10-22T12:27:36.609Z,13.04
2022-10-22T12:30:18.724Z,13.13
2022-10-22T12:32:46.206Z,13.04
2022-10-22T12:35:18.299Z,12.98
2022-10-22T12:37:45.228Z,12.96
2022-10-22T12:40:29.347Z,12.94
2022-10-22T12:42:59.014Z,12.89
2022-10-22T12:45:32.937Z,12.86
2022-10-22T12:48:03.188Z,12.82
2022-10-22T12:50:39.798Z,12.81
2022-10-22T12:53:13.775Z,12.84
2022-10-22T12:55:41.354Z,12.87
2022-10-22T12:58:08.315Z,12.84
2022-10-22T13:00:35.814Z,12.85
2022-10-22T13:03:06.208Z,12.84
2022-10-22T13:05:39.166Z,12.83
2022-10-22T13:08:10.602Z,12.80
2022-10-22T13:10:40.576Z,12.82
2022-10-22T13:13:07.597Z,12.82
2022-10-22T13:15:39.695Z,12.83
2022-10-22T13:18:17.293Z,12.76
2022-10-22T13:20:55.277Z,12.76
2022-10-22T13:23:27.324Z,12.81
2022-10-22T13:26:02.587Z,12.83
2022-10-22T13:28:32.182Z,12.85
2022-10-22T13:31:09.772Z,12.95
2022-10-22T13:33:40.351Z,12.92
2022-10-22T13:36:09.025Z,12.92
2022-10-22T13:38:35.615Z,12.91
2022-10-22T13:41:03.321Z,12.93
2022-10-22T13:43:30.009Z,12.89
2022-10-22T13:46:00.024Z,12.90
2022-10-22T13:48:29.077Z,12.93
2022-10-22T13:50:55.851Z,12.96
2022-10-22T13:53:25.478Z,13.02
2022-10-22T13:55:52.204Z,13.26
2022-10-22T13:58:21.746Z,13.28
2022-10-22T14:00:57.570Z,13.24
2022-10-22T14:03:31.867Z,13.22
2022-10-22T14:05:59.023Z,13.17
2022-10-22T14:08:27.248Z,13.21
2022-10-22T14:10:54.350Z,13.13
2022-10-22T14:13:21.470Z,13.10
2022-10-22T14:15:50.956Z,13.18
2022-10-22T14:18:25.639Z,13.20
2022-10-22T14:21:07.504Z,13.32
2022-10-22T14:23:36.388Z,13.37
2022-10-22T14:26:04.244Z,13.33
2022-10-22T14:28:34.119Z,13.25
2022-10-22T14:31:11.079Z,13.18
2022-10-22T14:33:37.754Z,13.11
2022-10-22T14:36:04.898Z,13.06
2022-10-22T14:38:31.598Z,13.04
2022-10-22T14:41:00.271Z,13.00
2022-10-22T14:43:31.280Z,12.99
2022-10-22T14:45:58.854Z,12.97
2022-10-22T14:48:25.546Z,12.93
2022-10-22T14:50:52.508Z,12.88
2022-10-22T14:53:19.293Z,12.87
2022-10-22T14:55:47.519Z,12.83
2022-10-22T14:58:14.955Z,12.84
2022-10-22T15:00:43.011Z,12.78
2022-10-22T15:03:10.087Z,12.76
2022-10-22T15:05:43.468Z,12.79
2022-10-22T15:08:11.223Z,12.76
2022-10-22T15:10:38.282Z,12.71
2022-10-22T15:13:04.969Z,12.72
2022-10-22T15:15:36.724Z,12.72
2022-10-22T15:18:06.030Z,12.67
2022-10-22T15:20:32.646Z,12.68
2022-10-22T15:22:59.561Z,12.70
2022-10-22T15:25:26.168Z,12.69
2022-10-22T15:27:54.887Z,12.67
2022-10-22T15:30:26.198Z,12.70
2022-10-22T15:32:52.874Z,12.68
2022-10-22T15:35:19.518Z,12.65
2022-10-22T15:37:46.159Z,12.64
2022-10-22T15:40:12.859Z,12.66
2022-10-22T15:42:39.737Z,12.63
2022-10-22T15:45:07.145Z,12.67
2022-10-22T15:47:34.054Z,12.67
2022-10-22T15:50:00.801Z,12.67
2022-10-22T15:52:27.443Z,12.64
2022-10-22T15:54:54.347Z,12.64
2022-10-22T15:57:21.083Z,12.62
2022-10-22T15:59:50.019Z,12.59
2022-10-22T16:02:16.806Z,12.56
2022-10-22T16:04:43.510Z,12.54
2022-10-22T16:07:10.149Z,12.49
2022-10-22T16:09:37.001Z,12.45
2022-10-22T16:12:03.829Z,12.36
2022-10-22T16:14:30.467Z,12.30
2022-10-22T16:16:57.184Z,12.24
2022-10-22T16:19:24.816Z,12.19
2022-10-22T16:21:54.154Z,12.14
2022-10-22T16:24:21.970Z,12.16
2022-10-22T16:26:49.012Z,12.12
2022-10-22T16:29:15.990Z,12.10
2022-10-22T16:31:44.047Z,12.06
2022-10-22T16:34:11.358Z,11.98
2022-10-22T16:36:38.436Z,11.94
2022-10-22T16:39:06.621Z,11.92
2022-10-22T16:41:36.645Z,11.91
2022-10-22T16:44:06.114Z,11.90
2022-10-22T16:46:33.497Z,11.89
2022-10-22T16:49:00.453Z,11.82
2022-10-22T16:51:28.628Z,11.63
2022-10-22T16:53:57.241Z,11.61
2022-10-22T16:56:24.957Z,11.64
2022-10-22T16:58:54.172Z,11.73
2022-10-22T17:01:23.004Z,11.75
2022-10-22T17:03:49.815Z,11.74
2022-10-22T17:06:16.456Z,11.67
2022-10-22T17:08:43.228Z,11.56
2022-10-22T17:11:14.294Z,11.57
2022-10-22T17:13:41.951Z,11.65
2022-10-22T17:16:11.472Z,11.59
2022-10-22T17:18:40.387Z,11.55
2022-10-22T17:21:09.619Z,11.53
2022-10-22T17:23:36.444Z,11.57
2022-10-22T17:26:06.646Z,11.55
2022-10-22T17:28:36.303Z,11.55
2022-10-22T17:31:08.902Z,11.54
2022-10-22T17:33:36.608Z,11.57
2022-10-22T17:36:09.175Z,11.54
2022-10-22T17:38:35.815Z,11.46
2022-10-22T17:41:04.222Z,11.42
2022-10-22T17:43:35.125Z,11.34
2022-10-22T17:46:10.956Z,11.32
2022-10-22T17:48:37.714Z,11.25
2022-10-22T17:51:08.183Z,11.22
2022-10-22T17:53:35.188Z,11.18
2022-10-22T17:56:04.212Z,11.06
2022-10-22T17:58:30.905Z,10.95
2022-10-22T18:00:58.638Z,10.91
2022-10-22T18:03:25.395Z,10.88
2022-10-22T18:05:52.067Z,10.80
2022-10-22T18:08:18.717Z,10.71
2022-10-22T18:10:45.508Z,10.71
2022-10-22T18:13:12.277Z,10.66
2022-10-22T18:15:38.888Z,10.67
2022-10-22T18:18:05.799Z,10.68
2022-10-22T18:20:32.852Z,10.70
2022-10-22T18:22:59.485Z,10.59
2022-10-22T18:25:26.456Z,10.47
2022-10-22T18:27:53.113Z,10.42
2022-10-22T18:30:19.737Z,10.44
2022-10-22T18:32:46.489Z,10.47
2022-10-22T18:35:13.119Z,10.49
2022-10-22T18:37:40.011Z,10.52
2022-10-22T18:40:08.832Z,10.58
2022-10-22T18:42:39.672Z,10.55
2022-10-22T18:45:07.411Z,10.46
2022-10-22T18:47:34.063Z,10.44
2022-10-22T18:50:00.689Z,10.48
2022-10-22T18:52:27.318Z,10.60
2022-10-22T18:54:54.492Z,10.57
2022-10-22T18:57:21.141Z,10.54
2022-10-22T18:59:47.773Z,10.57
2022-10-22T19:02:17.159Z,10.57
2022-10-22T19:04:44.639Z,10.45
2022-10-22T19:07:12.221Z,10.33
2022-10-22T19:09:39.948Z,10.32
2022-10-22T19:12:07.520Z,10.25
2022-10-22T19:14:34.271Z,10.20
2022-10-22T19:17:00.915Z,10.13
2022-10-22T19:19:27.626Z,10.03
2022-10-22T19:21:56.594Z,9.99
2022-10-22T19:24:23.265Z,9.97
2022-10-22T19:26:50.353Z,9.98
2022-10-22T19:29:19.281Z,10.01
2022-10-22T19:31:47.563Z,10.01
2022-10-22T19:34:14.391Z,10.01
2022-10-22T19:36:41.019Z,10.02
2022-10-22T19:39:08.986Z,10.05
2022-10-22T19:41:35.893Z,10.07
2022-10-22T19:44:02.697Z,10.10
2022-10-22T19:46:30.469Z,10.09
2022-10-22T19:48:57.453Z,10.09
2022-10-22T19:51:27.331Z,10.12
2022-10-22T19:53:59.312Z,10.06
2022-10-22T19:56:26.182Z,10.03
2022-10-22T19:58:52.897Z,10.00
2022-10-22T20:01:20.534Z,9.94
2022-10-22T20:03:47.639Z,9.85
2022-10-22T20:06:16.533Z,9.76
2022-10-22T20:08:43.214Z,9.72
2022-10-22T20:11:15.522Z,9.73
2022-10-22T20:13:43.615Z,9.76
2022-10-22T20:16:15.210Z,9.75
2022-10-22T20:18:41.835Z,9.72
2022-10-22T20:21:12.332Z,9.67
2022-10-22T20:23:39.031Z,9.49
2022-10-22T20:26:06.161Z,9.44
2022-10-22T20:28:32.905Z,9.44
2022-10-22T20:30:59.615Z,9.31
2022-10-22T20:33:26.344Z,9.29
2022-10-22T20:35:59.835Z,9.27
2022-10-22T20:38:26.714Z,9.24
2022-10-22T20:41:05.137Z,9.21
2022-10-22T20:43:32.380Z,9.16
2022-10-22T20:45:59.596Z,9.12
2022-10-22T20:48:31.297Z,9.03
2022-10-22T20:50:59.877Z,9.01
2022-10-22T20:53:27.307Z,8.98
2022-10-22T20:55:57.706Z,8.94
2022-10-22T20:58:26.828Z,8.93
2022-10-22T21:00:55.023Z,8.87
2022-10-22T21:03:21.918Z,8.83
2022-10-22T21:05:48.756Z,8.76
2022-10-22T21:08:17.565Z,8.73
2022-10-22T21:10:46.496Z,8.68
2022-10-22T21:13:14.062Z,8.66
2022-10-22T21:15:41.421Z,8.62
2022-10-22T21:18:08.422Z,8.59
2022-10-22T21:20:35.064Z,8.58
2022-10-22T21:23:02.218Z,8.55
2022-10-22T21:25:28.959Z,8.49
2022-10-22T21:27:55.626Z,8.50
2022-10-22T21:30:22.264Z,8.50
2022-10-22T21:32:49.018Z,8.46
2022-10-22T21:35:15.837Z,8.41
2022-10-22T21:37:42.645Z,8.40
2022-10-22T21:40:10.207Z,8.38
2022-10-22T21:42:36.791Z,8.38
2022-10-22T21:45:03.824Z,8.26
2022-10-22T21:47:30.487Z,8.19
2022-10-22T21:49:57.136Z,8.18
2022-10-22T21:52:24.075Z,8.16
2022-10-22T21:54:50.762Z,8.14
2022-10-22T21:57:17.395Z,8.16
2022-10-22T21:59:44.063Z,8.11
2022-10-22T22:02:10.795Z,8.06
2022-10-22T22:04:37.775Z,8.05
2022-10-22T22:07:04.492Z,8.04
2022-10-22T22:09:31.166Z,8.03
2022-10-22T22:11:57.799Z,8.01
2022-10-22T22:14:24.510Z,8.01
2022-10-22T22:16:51.189Z,8.01
2022-10-22T22:19:17.821Z,7.99
2022-10-22T22:21:44.676Z,7.99
2022-10-22T22:24:13.179Z,7.98
2022-10-22T22:26:40.236Z,7.95
2022-10-22T22:29:06.820Z,7.88
2022-10-22T22:31:35.721Z,7.86
2022-10-22T22:34:05.512Z,7.87
2022-10-22T22:36:35.539Z,7.83
2022-10-22T22:39:03.693Z,7.78
2022-10-22T22:41:30.604Z,7.78
2022-10-22T22:43:57.243Z,7.76
2022-10-22T22:46:23.973Z,7.74
2022-10-22T22:48:51.177Z,7.74
2022-10-22T22:51:18.591Z,7.78
2022-10-22T22:53:45.610Z,7.75
2022-10-22T22:56:23.230Z,7.72
2022-10-22T22:58:50.316Z,7.67
2022-10-22T23:01:25.795Z,7.75
2022-10-22T23:03:58.088Z,7.72
2022-10-22T23:06:30.335Z,7.69
2022-10-22T23:08:57.652Z,7.66
2022-10-22T23:11:27.375Z,7.59
2022-10-22T23:13:56.529Z,7.54
2022-10-22T23:16:25.419Z,7.53
2022-10-22T23:18:54.429Z,7.44
2022-10-22T23:21:26.071Z,7.40
2022-10-22T23:23:56.196Z,7.41
2022-10-22T23:26:29.851Z,7.44
2022-10-22T23:29:03.442Z,7.40
2022-10-22T23:31:30.165Z,7.33
2022-10-22T23:33:57.212Z,7.31
2022-10-22T23:36:23.891Z,7.27
2022-10-22T23:38:50.565Z,7.29
2022-10-22T23:41:17.754Z,7.31
2022-10-22T23:43:44.441Z,7.29
2022-10-22T23:46:13.298Z,7.29
2022-10-22T23:48:40.446Z,7.33
2022-10-22T23:51:14.420Z,7.33
2022-10-22T23:53:42.660Z,7.33
2022-10-22T23:56:12.690Z,7.36
2022-10-22T23:58:39.614Z,7.33
